createdAt,value
2016-03-08T00:00:16.825Z,93.23
2016-03-08T00:01:16.734Z,92.94
2016-03-08T00:02:16.722Z,93.04
2016-03-08T00:03:16.708Z,92.76
2016-03-08T00:04:16.712Z,93.04
2016-03-08T00:05:16.698Z,92.85
2016-03-08T00:06:16.717Z,92.29
2016-03-08T00:07:16.704Z,92.38
2016-03-08T00:08:16.706Z,92.38
2016-03-08T00:09:16.678Z,92.38
2016-03-08T00:10:16.680Z,92.57
2016-03-08T00:11:16.683Z,92.57
2016-03-08T00:12:16.686Z,92.66
2016-03-08T00:13:16.674Z,92.47
2016-03-08T00:14:16.660Z,92.47
2016-03-08T00:15:16.647Z,92.47
2016-03-08T00:16:16.649Z,93.04
2016-03-08T00:17:16.622Z,93.13
2016-03-08T00:18:16.640Z,93.04
2016-03-08T00:19:16.626Z,92.66
2016-03-08T00:20:16.770Z,92.94
2016-03-08T00:21:16.616Z,93.23
2016-03-08T00:22:16.619Z,93.23
2016-03-08T00:23:16.622Z,92.57
2016-03-08T00:24:16.578Z,92.38
2016-03-08T00:25:16.705Z,92.57
2016-03-08T00:26:16.584Z,92.47
2016-03-08T00:27:16.570Z,92.85
2016-03-08T00:28:16.556Z,92.57
2016-03-08T00:29:16.560Z,92.47
2016-03-08T00:30:16.594Z,92.66
2016-03-08T00:31:16.550Z,92.38
2016-03-08T00:32:16.537Z,92.29
2016-03-08T00:33:16.602Z,92.29
2016-03-08T00:34:16.526Z,92.29
2016-03-08T00:35:16.701Z,92.57
2016-03-08T00:36:16.516Z,92.57
2016-03-08T00:37:16.503Z,93.13
2016-03-08T00:38:16.506Z,92.29
2016-03-08T00:39:16.494Z,92.47
2016-03-08T00:40:16.496Z,92.38
2016-03-08T00:41:16.483Z,92.38
2016-03-08T00:42:16.469Z,92.66
2016-03-08T00:43:16.472Z,92.29
2016-03-08T00:44:16.475Z,92.76
2016-03-08T00:45:16.493Z,93.13
2016-03-08T00:46:16.449Z,93.23
2016-03-08T00:47:16.451Z,93.42
2016-03-08T00:48:16.439Z,93.42
2016-03-08T00:49:16.441Z,92.66
2016-03-08T00:50:16.460Z,93.13
2016-03-08T00:51:16.416Z,92.94
2016-03-08T00:52:16.434Z,92.94
2016-03-08T00:53:16.406Z,92.85
2016-03-08T00:54:16.409Z,92.66
2016-03-08T00:55:16.457Z,93.32
2016-03-08T00:56:16.382Z,93.13
2016-03-08T00:57:16.385Z,93.7
2016-03-08T00:58:16.372Z,93.89
2016-03-08T00:59:16.376Z,93.89
2016-03-08T01:00:16.425Z,93.61
2016-03-08T01:01:16.381Z,94.18
2016-03-08T01:02:16.351Z,93.7
2016-03-08T01:03:16.354Z,93.7
2016-03-08T01:04:16.342Z,93.7
2016-03-08T01:05:16.328Z,93.99
2016-03-08T01:06:16.316Z,93.32
2016-03-08T01:07:16.319Z,93.51
2016-03-08T01:08:16.321Z,93.7
2016-03-08T01:09:16.308Z,93.99
2016-03-08T01:10:16.320Z,93.89
2016-03-08T01:11:16.294Z,93.89
2016-03-08T01:12:16.254Z,93.8
2016-03-08T01:13:16.259Z,93.7
2016-03-08T01:14:16.218Z,93.7
2016-03-08T01:15:16.276Z,93.23
2016-03-08T01:16:16.196Z,93.42
2016-03-08T01:17:16.180Z,93.32
2016-03-08T01:18:16.178Z,92.94
2016-03-08T01:19:16.160Z,93.04
2016-03-08T01:20:16.207Z,93.13
2016-03-08T01:21:16.162Z,93.89
2016-03-08T01:22:16.148Z,93.8
2016-03-08T01:23:16.149Z,93.99
2016-03-08T01:24:16.117Z,94.08
2016-03-08T01:25:16.183Z,93.99
2016-03-08T01:26:16.121Z,93.89
2016-03-08T01:27:16.109Z,94.08
2016-03-08T01:28:16.094Z,93.61
2016-03-08T01:29:16.080Z,93.8
2016-03-08T01:30:16.129Z,94.18
2016-03-08T01:31:16.070Z,94.65
2016-03-08T01:32:16.056Z,94.65
2016-03-08T01:33:16.058Z,94.56
2016-03-08T01:34:16.092Z,94.56
2016-03-08T01:35:16.048Z,94.46
2016-03-08T01:36:16.050Z,94.56
2016-03-08T01:37:16.022Z,94.56
2016-03-08T01:38:16.040Z,94.27
2016-03-08T01:39:16.026Z,94.56
2016-03-08T01:40:16.015Z,94.74
2016-03-08T01:41:16.017Z,93.7
2016-03-08T01:42:16.020Z,94.08
2016-03-08T01:43:16.022Z,93.32
2016-03-08T01:44:15.993Z,93.23
2016-03-08T01:45:16.043Z,93.23
2016-03-08T01:46:15.968Z,93.23
2016-03-08T01:47:15.970Z,92.29
2016-03-08T01:48:15.864Z,92.29
2016-03-08T01:49:15.960Z,92
2016-03-08T01:50:15.979Z,92.38
2016-03-08T01:51:15.966Z,92.19
2016-03-08T01:52:15.936Z,92.47
2016-03-08T01:53:15.939Z,92.24
2016-03-08T01:54:15.942Z,92.43
2016-03-08T01:55:15.991Z,92.33
2016-03-08T01:56:15.917Z,92.61
2016-03-08T01:57:15.935Z,91.96
2016-03-08T01:58:15.905Z,91.86
2016-03-08T01:59:15.894Z,91.77
2016-03-08T02:00:15.911Z,91.58
2016-03-08T02:01:15.883Z,91.67
2016-03-08T02:02:15.885Z,91.67
2016-03-08T02:03:15.904Z,91.86
2016-03-08T02:04:15.891Z,91.77
2016-03-08T02:05:15.894Z,91.77
2016-03-08T02:06:15.850Z,91.39
2016-03-08T02:07:15.852Z,91.67
2016-03-08T02:08:15.839Z,91.86
2016-03-08T02:09:15.843Z,91.86
2016-03-08T02:10:15.845Z,91.1
2016-03-08T02:11:15.831Z,91.2
2016-03-08T02:12:15.819Z,91.1
2016-03-08T02:13:15.821Z,91.29
2016-03-08T02:14:15.824Z,91.29
2016-03-08T02:15:15.859Z,91.1
2016-03-08T02:16:15.798Z,91.48
2016-03-08T02:17:15.786Z,91.39
2016-03-08T02:18:15.648Z,91.58
2016-03-08T02:19:15.791Z,91.58
2016-03-08T02:20:15.840Z,91.39
2016-03-08T02:21:15.780Z,91.58
2016-03-08T02:22:15.767Z,91.39
2016-03-08T02:23:15.786Z,90.72
2016-03-08T02:24:15.742Z,90.53
2016-03-08T02:25:15.744Z,90.53
2016-03-08T02:26:15.747Z,91.01
2016-03-08T02:27:15.734Z,90.82
2016-03-08T02:28:15.721Z,90.53
2016-03-08T02:29:15.724Z,90.82
2016-03-08T02:30:15.741Z,90.53
2016-03-08T02:31:15.714Z,90.44
2016-03-08T02:32:15.716Z,90.53
2016-03-08T02:33:15.704Z,90.63
2016-03-08T02:34:15.691Z,90.82
2016-03-08T02:35:15.740Z,90.06
2016-03-08T02:36:15.680Z,90.25
2016-03-08T02:37:15.683Z,90.34
2016-03-08T02:38:15.686Z,90.63
2016-03-08T02:39:15.657Z,90.53
2016-03-08T02:40:15.690Z,90.34
2016-03-08T02:41:15.663Z,90.63
2016-03-08T02:42:15.649Z,90.91
2016-03-08T02:43:15.668Z,90.82
2016-03-08T02:44:15.640Z,90.91
2016-03-08T02:45:15.657Z,90.63
2016-03-08T02:46:15.628Z,90.53
2016-03-08T02:47:15.632Z,90.53
2016-03-08T02:48:15.619Z,90.44
2016-03-08T02:49:15.606Z,90.82
2016-03-08T02:50:15.609Z,91.1
2016-03-08T02:51:15.595Z,91.29
2016-03-08T02:52:15.598Z,91.58
2016-03-08T02:53:15.601Z,91.58
2016-03-08T02:54:15.572Z,91.86
2016-03-08T02:55:15.575Z,91.48
2016-03-08T02:56:15.577Z,91.86
2016-03-08T02:57:15.565Z,91.29
2016-03-08T02:58:15.552Z,91.1
2016-03-08T02:59:15.538Z,91.39
2016-03-08T03:00:15.557Z,90.63
2016-03-08T03:01:15.544Z,90.91
2016-03-08T03:02:15.563Z,90.82
2016-03-08T03:03:15.519Z,90.91
2016-03-08T03:04:15.521Z,90.91
2016-03-08T03:05:15.602Z,90.82
2016-03-08T03:06:15.511Z,90.44
2016-03-08T03:07:15.499Z,90.72
2016-03-08T03:08:15.501Z,90.82
2016-03-08T03:09:15.487Z,91.2
2016-03-08T03:10:15.507Z,91.58
2016-03-08T03:11:15.477Z,91.86
2016-03-08T03:12:15.480Z,91.1
2016-03-08T03:13:15.483Z,92.05
2016-03-08T03:14:15.454Z,92.43
2016-03-08T03:15:15.534Z,92.43
2016-03-08T03:16:15.460Z,92.05
2016-03-08T03:17:15.462Z,91.77
2016-03-08T03:18:15.434Z,91.96
2016-03-08T03:19:15.436Z,91.01
2016-03-08T03:20:15.501Z,91.77
2016-03-08T03:21:15.411Z,91.67
2016-03-08T03:22:15.414Z,91.58
2016-03-08T03:23:15.417Z,92.14
2016-03-08T03:24:15.403Z,92.14
2016-03-08T03:25:15.405Z,92.14
2016-03-08T03:26:15.409Z,91.48
2016-03-08T03:27:15.395Z,91.39
2016-03-08T03:28:15.383Z,91.58
2016-03-08T03:29:15.369Z,91.77
2016-03-08T03:30:15.372Z,92.05
2016-03-08T03:31:15.360Z,91.86
2016-03-08T03:32:15.363Z,91.77
2016-03-08T03:33:15.350Z,92.14
2016-03-08T03:34:15.352Z,91.58
2016-03-08T03:35:15.338Z,91.58
2016-03-08T03:36:15.358Z,91.39
2016-03-08T03:37:15.344Z,91.29
2016-03-08T03:38:15.331Z,92.14
2016-03-08T03:39:15.318Z,91.29
2016-03-08T03:40:15.321Z,91.29
2016-03-08T03:41:15.307Z,91.48
2016-03-08T03:42:15.296Z,91.77
2016-03-08T03:43:15.298Z,91.29
2016-03-08T03:44:15.285Z,91.1
2016-03-08T03:45:15.365Z,91.39
2016-03-08T03:46:15.275Z,91.2
2016-03-08T03:47:15.278Z,91.1
2016-03-08T03:48:15.280Z,90.44
2016-03-08T03:49:15.283Z,90.82
2016-03-08T03:50:15.254Z,90.82
2016-03-08T03:51:15.256Z,90.44
2016-03-08T03:52:15.245Z,90.82
2016-03-08T03:53:15.247Z,90.63
2016-03-08T03:54:15.234Z,90.63
2016-03-08T03:55:15.268Z,89.97
2016-03-08T03:56:15.223Z,89.4
2016-03-08T03:57:15.211Z,89.31
2016-03-08T03:58:15.197Z,89.59
2016-03-08T03:59:15.200Z,89.59
2016-03-08T04:00:15.219Z,89.12
2016-03-08T04:01:15.205Z,88.55
2016-03-08T04:02:15.194Z,87.98
2016-03-08T04:03:15.180Z,87.98
2016-03-08T04:04:15.182Z,87.88
2016-03-08T04:05:15.185Z,87.98
2016-03-08T04:06:15.172Z,87.51
2016-03-08T04:07:15.154Z,87.41
2016-03-08T04:08:15.156Z,87.51
2016-03-08T04:09:15.143Z,87.79
2016-03-08T04:10:15.162Z,87.32
2016-03-08T04:11:15.148Z,87.6
2016-03-08T04:12:15.120Z,87.41
2016-03-08T04:13:15.123Z,87.41
2016-03-08T04:14:15.125Z,87.51
2016-03-08T04:15:15.129Z,87.51
2016-03-08T04:16:15.100Z,87.88
2016-03-08T04:17:15.103Z,87.79
2016-03-08T04:18:15.105Z,87.32
2016-03-08T04:19:15.092Z,87.13
2016-03-08T04:20:15.219Z,87.32
2016-03-08T04:21:15.081Z,87.41
2016-03-08T04:22:15.099Z,87.98
2016-03-08T04:23:15.086Z,87.6
2016-03-08T04:24:15.058Z,88.07
2016-03-08T04:25:15.061Z,88.36
2016-03-08T04:26:15.064Z,88.07
2016-03-08T04:27:15.051Z,88.55
2016-03-08T04:28:15.038Z,88.64
2016-03-08T04:29:15.041Z,88.26
2016-03-08T04:30:15.059Z,89.02
2016-03-08T04:31:15.030Z,88.64
2016-03-08T04:32:15.017Z,88.74
2016-03-08T04:33:15.005Z,88.83
2016-03-08T04:34:15.007Z,88.45
2016-03-08T04:35:15.010Z,88.45
2016-03-08T04:36:15.013Z,88.64
2016-03-08T04:37:14.999Z,88.36
2016-03-08T04:38:15.002Z,88.17
2016-03-08T04:39:14.990Z,88.17
2016-03-08T04:40:14.976Z,88.26
2016-03-08T04:41:14.979Z,88.36
2016-03-08T04:42:14.966Z,88.26
2016-03-08T04:43:14.954Z,88.64
2016-03-08T04:44:14.956Z,88.93
2016-03-08T04:45:14.834Z,88.55
2016-03-08T04:46:14.946Z,88.74
2016-03-08T04:47:14.948Z,88.64
2016-03-08T04:48:14.951Z,89.12
2016-03-08T04:49:14.954Z,88.64
2016-03-08T04:50:15.004Z,88.55
2016-03-08T04:51:14.912Z,89.12
2016-03-08T04:52:14.899Z,87.98
2016-03-08T04:53:14.902Z,87.6
2016-03-08T04:54:14.889Z,87.6
2016-03-08T04:55:14.985Z,88.07
2016-03-08T04:56:14.895Z,88.17
2016-03-08T04:57:14.882Z,88.26
2016-03-08T04:58:14.884Z,88.07
2016-03-08T04:59:14.871Z,88.17
2016-03-08T05:00:14.983Z,88.17
2016-03-08T05:01:14.861Z,88.83
2016-03-08T05:02:14.848Z,88.64
2016-03-08T05:03:14.851Z,88.64
2016-03-08T05:04:14.838Z,89.12
2016-03-08T05:05:14.824Z,89.02
2016-03-08T05:06:14.828Z,89.02
2016-03-08T05:07:14.830Z,89.4
2016-03-08T05:08:14.818Z,88.64
2016-03-08T05:09:14.820Z,88.45
2016-03-08T05:10:14.854Z,88.45
2016-03-08T05:11:14.810Z,88.55
2016-03-08T05:12:14.812Z,88.83
2016-03-08T05:13:14.800Z,88.64
2016-03-08T05:14:14.803Z,88.55
2016-03-08T05:15:14.789Z,89.31
2016-03-08T05:16:14.777Z,88.93
2016-03-08T05:17:14.764Z,88.64
2016-03-08T05:18:14.767Z,89.5
2016-03-08T05:19:14.769Z,88.93
2016-03-08T05:20:14.756Z,89.31
2016-03-08T05:21:14.758Z,89.21
2016-03-08T05:22:14.745Z,89.12
2016-03-08T05:23:14.732Z,89.31
2016-03-08T05:24:14.736Z,89.02
2016-03-08T05:25:14.738Z,89.69
2016-03-08T05:26:14.725Z,89.5
2016-03-08T05:27:14.728Z,89.4
2016-03-08T05:28:14.699Z,89.5
2016-03-08T05:29:14.718Z,89.59
2016-03-08T05:30:14.704Z,89.5
2016-03-08T05:31:14.692Z,89.69
2016-03-08T05:32:14.694Z,88.74
2016-03-08T05:33:14.696Z,89.69
2016-03-08T05:34:14.537Z,88.74
2016-03-08T05:35:14.833Z,88.74
2016-03-08T05:36:14.649Z,89.02
2016-03-08T05:37:18.862Z,89.4
2016-03-08T05:38:14.839Z,88.45
2016-03-08T05:39:14.956Z,88.55
2016-03-08T05:40:14.629Z,87.79
2016-03-08T05:41:14.632Z,88.07
2016-03-08T05:42:14.619Z,87.79
2016-03-08T05:43:14.607Z,87.6
2016-03-08T05:44:14.609Z,87.6
2016-03-08T05:45:14.612Z,87.6
2016-03-08T05:46:14.600Z,87.6
2016-03-08T05:47:14.586Z,87.08
2016-03-08T05:48:14.589Z,87.65
2016-03-08T05:49:14.614Z,87.6
2016-03-08T05:50:14.570Z,87.41
2016-03-08T05:51:14.572Z,87.32
2016-03-08T05:52:14.560Z,87.6
2016-03-08T05:53:14.563Z,87.51
2016-03-08T05:54:14.565Z,87.41
2016-03-08T05:55:14.568Z,87.7
2016-03-08T05:56:14.540Z,87.88
2016-03-08T05:57:14.526Z,87.36
2016-03-08T05:58:14.545Z,87.74
2016-03-08T05:59:14.548Z,87.74
2016-03-08T06:00:14.596Z,87.74
2016-03-08T06:01:14.506Z,87.46
2016-03-08T06:02:14.508Z,87.36
2016-03-08T06:03:14.496Z,87.36
2016-03-08T06:04:14.514Z,87.74
2016-03-08T06:05:14.548Z,87.46
2016-03-08T06:06:14.477Z,87.7
2016-03-08T06:07:14.512Z,87.46
2016-03-08T06:08:14.467Z,87.46
2016-03-08T06:09:14.469Z,88.07
2016-03-08T06:10:14.738Z,87.6
2016-03-08T06:11:14.459Z,88.45
2016-03-08T06:12:14.775Z,88.36
2016-03-08T06:13:14.449Z,88.26
2016-03-08T06:14:14.436Z,88.26
2016-03-08T06:15:14.502Z,88.17
2016-03-08T06:16:14.426Z,88.26
2016-03-08T06:17:14.430Z,88.21
2016-03-08T06:18:14.416Z,87.65
2016-03-08T06:19:14.435Z,87.93
2016-03-08T06:20:14.437Z,87.55
2016-03-08T06:21:14.393Z,87.55
2016-03-08T06:22:14.396Z,87.36
2016-03-08T06:23:14.398Z,87.27
2016-03-08T06:24:14.401Z,87.46
2016-03-08T06:25:14.513Z,87.27
2016-03-08T06:26:14.391Z,87.27
2016-03-08T06:27:14.377Z,87.36
2016-03-08T06:28:14.365Z,87.27
2016-03-08T06:29:14.351Z,86.89
2016-03-08T06:30:14.354Z,87.36
2016-03-08T06:31:14.356Z,86.6
2016-03-08T06:32:14.360Z,86.6
2016-03-08T06:33:14.347Z,86.7
2016-03-08T06:34:14.381Z,86.6
2016-03-08T06:35:14.320Z,86.32
2016-03-08T06:36:14.323Z,86.6
2016-03-08T06:37:14.326Z,87.27
2016-03-08T06:38:14.313Z,87.36
2016-03-08T06:39:14.160Z,87.27
2016-03-08T06:40:14.397Z,86.41
2016-03-08T06:41:14.289Z,86.6
2016-03-08T06:42:14.308Z,86.79
2016-03-08T06:43:14.295Z,86.41
2016-03-08T06:44:14.298Z,86.79
2016-03-08T06:45:14.285Z,86.32
2016-03-08T06:46:14.366Z,86.6
2016-03-08T06:47:14.260Z,86.6
2016-03-08T06:48:14.262Z,86.6
2016-03-08T06:49:14.297Z,86.7
2016-03-08T06:50:14.252Z,85.94
2016-03-08T06:51:14.255Z,86.04
2016-03-08T06:52:14.241Z,86.7
2016-03-08T06:53:14.244Z,86.6
2016-03-08T06:54:14.232Z,86.79
2016-03-08T06:55:14.296Z,87.17
2016-03-08T06:56:14.237Z,87.08
2016-03-08T06:57:14.208Z,86.51
2016-03-08T06:58:14.211Z,87.36
2016-03-08T06:59:14.213Z,87.27
2016-03-08T07:00:14.201Z,87.08
2016-03-08T07:01:14.204Z,87.17
2016-03-08T07:02:14.206Z,86.51
2016-03-08T07:03:14.192Z,86.6
2016-03-08T07:04:14.196Z,86.51
2016-03-08T07:05:14.214Z,85.94
2016-03-08T07:06:14.169Z,86.04
2016-03-08T07:07:14.172Z,86.13
2016-03-08T07:08:14.175Z,85.66
2016-03-08T07:09:14.178Z,85.38
2016-03-08T07:10:14.165Z,85
2016-03-08T07:11:14.153Z,84.14
2016-03-08T07:12:14.155Z,83.86
2016-03-08T07:13:14.141Z,83.67
2016-03-08T07:14:14.144Z,83.9
2016-03-08T07:15:14.225Z,84.47
2016-03-08T07:16:14.134Z,84.47
2016-03-08T07:17:14.136Z,84.09
2016-03-08T07:18:14.124Z,84
2016-03-08T07:19:14.252Z,83.62
2016-03-08T07:20:14.113Z,82.86
2016-03-08T07:21:14.117Z,82.01
2016-03-08T07:22:14.135Z,82.39
2016-03-08T07:23:14.107Z,82.1
2016-03-08T07:24:14.109Z,82.01
2016-03-08T07:25:14.112Z,81.53
2016-03-08T07:26:14.099Z,81.06
2016-03-08T07:27:14.101Z,81.34
2016-03-08T07:28:14.088Z,81.25
2016-03-08T07:29:14.091Z,80.87
2016-03-08T07:30:14.109Z,81.25
2016-03-08T07:31:14.065Z,81.25
2016-03-08T07:32:14.068Z,80.96
2016-03-08T07:33:14.071Z,80.58
2016-03-08T07:34:14.057Z,80.21
2016-03-08T07:35:14.060Z,79.74
2016-03-08T07:36:14.063Z,79.26
2016-03-08T07:37:14.097Z,79.45
2016-03-08T07:38:14.052Z,79.17
2016-03-08T07:39:14.055Z,79.45
2016-03-08T07:40:14.042Z,79.83
2016-03-08T07:41:14.076Z,79.93
2016-03-08T07:42:14.033Z,79.83
2016-03-08T07:43:14.036Z,80.02
2016-03-08T07:44:14.022Z,80.21
2016-03-08T07:45:14.040Z,80.4
2016-03-08T07:46:14.028Z,80.3
2016-03-08T07:47:14.030Z,80.68
2016-03-08T07:48:14.002Z,80.02
2016-03-08T07:49:14.019Z,80.3
2016-03-08T07:50:14.038Z,79.93
2016-03-08T07:51:13.994Z,79.83
2016-03-08T07:52:13.996Z,79.93
2016-03-08T07:53:14.031Z,79.93
2016-03-08T07:54:13.986Z,79.74
2016-03-08T07:55:13.989Z,79.55
2016-03-08T07:56:13.991Z,79.64
2016-03-08T07:57:13.994Z,80.02
2016-03-08T07:58:13.982Z,80.02
2016-03-08T07:59:13.998Z,79.36
2016-03-08T08:00:14.079Z,79.26
2016-03-08T08:01:13.972Z,79.26
2016-03-08T08:02:13.959Z,79.45
2016-03-08T08:03:13.946Z,79.45
2016-03-08T08:04:13.965Z,79.93
2016-03-08T08:05:13.998Z,79.36
2016-03-08T08:06:13.970Z,79.74
2016-03-08T08:07:13.941Z,79.26
2016-03-08T08:08:13.944Z,79.07
2016-03-08T08:09:13.931Z,79.26
2016-03-08T08:10:13.981Z,78.79
2016-03-08T08:11:13.921Z,78.79
2016-03-08T08:12:13.939Z,79.17
2016-03-08T08:13:13.941Z,79.17
2016-03-08T08:14:13.914Z,78.98
2016-03-08T08:15:13.978Z,78.5
2016-03-08T08:16:13.903Z,78.59
2016-03-08T08:17:13.906Z,78.5
2016-03-08T08:18:13.892Z,78.98
2016-03-08T08:19:13.895Z,78.98
2016-03-08T08:20:13.897Z,78.31
2016-03-08T08:21:13.886Z,78.79
2016-03-08T08:22:13.888Z,78.69
2016-03-08T08:23:13.874Z,79.17
2016-03-08T08:24:13.861Z,78.88
2016-03-08T08:25:13.896Z,78.5
2016-03-08T08:26:13.852Z,78.79
2016-03-08T08:27:13.870Z,79.07
2016-03-08T08:28:13.857Z,78.22
2016-03-08T08:29:13.860Z,78.03
2016-03-08T08:30:13.957Z,78.03
2016-03-08T08:31:13.849Z,76.89
2016-03-08T08:32:13.899Z,76.8
2016-03-08T08:33:13.902Z,76.08
2016-03-08T08:34:13.826Z,75.98
2016-03-08T08:35:13.876Z,75.85
2016-03-08T08:36:13.816Z,76.17
2016-03-08T08:37:13.834Z,76.14
2016-03-08T08:38:13.806Z,76.89
2016-03-08T08:39:13.809Z,77.84
2016-03-08T08:40:13.812Z,78.22
2016-03-08T08:41:13.815Z,78.59
2016-03-08T08:42:13.817Z,78.69
2016-03-08T08:43:13.804Z,78.59
2016-03-08T08:44:13.790Z,78.79
2016-03-08T08:45:13.856Z,78.79
2016-03-08T08:46:13.780Z,78.79
2016-03-08T08:47:13.767Z,78.13
2016-03-08T08:48:13.786Z,78.16
2016-03-08T08:49:13.772Z,78.35
2016-03-08T08:50:13.838Z,77.88
2016-03-08T08:51:13.778Z,77.78
2016-03-08T08:52:13.781Z,77.22
2016-03-08T08:53:13.768Z,77.78
2016-03-08T08:54:13.771Z,77.5
2016-03-08T08:55:13.774Z,77.5
2016-03-08T08:56:13.745Z,77.69
2016-03-08T08:57:13.763Z,77.31
2016-03-08T08:58:13.750Z,77.97
2016-03-08T08:59:13.738Z,77.97
2016-03-08T09:00:13.818Z,77.88
2016-03-08T09:01:13.743Z,77.22
2016-03-08T09:02:13.730Z,77.12
2016-03-08T09:03:13.732Z,77.5
2016-03-08T09:04:13.735Z,77.78
2016-03-08T09:05:13.784Z,77.88
2016-03-08T09:06:13.725Z,76.93
2016-03-08T09:07:13.727Z,76.17
2016-03-08T09:08:13.715Z,76.08
2016-03-08T09:09:13.702Z,75.98
2016-03-08T09:10:13.767Z,75.89
2016-03-08T09:11:13.707Z,75.7
2016-03-08T09:12:13.710Z,75.79
2016-03-08T09:13:13.697Z,75.89
2016-03-08T09:14:13.706Z,75.79
2016-03-08T09:15:13.741Z,75.51
2016-03-08T09:16:13.697Z,75.42
2016-03-08T09:17:13.699Z,75.55
2016-03-08T09:18:13.716Z,74.79
2016-03-08T09:19:13.689Z,74.41
2016-03-08T09:20:13.675Z,73.84
2016-03-08T09:21:13.678Z,73.75
2016-03-08T09:22:13.697Z,73.94
2016-03-08T09:23:13.668Z,73.56
2016-03-08T09:24:13.671Z,73.84
2016-03-08T09:25:13.705Z,73.37
2016-03-08T09:26:13.661Z,73.37
2016-03-08T09:27:13.663Z,74.13
2016-03-08T09:28:13.666Z,73.75
2016-03-08T09:29:13.654Z,73.46
2016-03-08T09:30:13.671Z,72.89
2016-03-08T09:31:13.643Z,73.27
2016-03-08T09:32:13.692Z,73.27
2016-03-08T09:33:13.648Z,73.56
2016-03-08T09:34:13.650Z,73.65
2016-03-08T09:35:13.654Z,72.8
2016-03-08T09:36:13.656Z,72.89
2016-03-08T09:37:13.642Z,73.27
2016-03-08T09:38:13.630Z,73.08
2016-03-08T09:39:13.633Z,73.18
2016-03-08T09:40:13.651Z,73.37
2016-03-08T09:41:13.639Z,73.75
2016-03-08T09:42:13.625Z,73.75
2016-03-08T09:43:13.628Z,74.13
2016-03-08T09:44:13.630Z,74.47
2016-03-08T09:45:13.618Z,73.37
2016-03-08T09:46:13.652Z,73.18
2016-03-08T09:47:13.622Z,72.71
2016-03-08T09:48:13.626Z,71.85
2016-03-08T09:49:13.613Z,71.57
2016-03-08T09:50:13.631Z,71.38
2016-03-08T09:51:13.619Z,71.66
2016-03-08T09:52:13.605Z,72.23
2016-03-08T09:53:13.608Z,72.04
2016-03-08T09:54:13.610Z,72.14
2016-03-08T09:55:13.598Z,72.33
2016-03-08T09:56:13.601Z,72.04
2016-03-08T09:57:13.603Z,72.71
2016-03-08T09:58:13.590Z,72.33
2016-03-08T09:59:13.593Z,72.89
2016-03-08T10:00:13.627Z,72.71
2016-03-08T10:01:13.598Z,72.71
2016-03-08T10:02:13.585Z,72.52
2016-03-08T10:03:13.587Z,72.71
2016-03-08T10:04:13.576Z,72.61
2016-03-08T10:05:13.609Z,72.71
2016-03-08T10:06:13.581Z,72.8
2016-03-08T10:07:13.585Z,72.52
2016-03-08T10:08:13.587Z,72.42
2016-03-08T10:09:13.574Z,72.42
2016-03-08T10:10:13.608Z,72.71
2016-03-08T10:11:13.563Z,72.71
2016-03-08T10:12:13.566Z,72.8
2016-03-08T10:13:13.554Z,72.89
2016-03-08T10:14:13.556Z,73.18
2016-03-08T10:15:13.684Z,72.71
2016-03-08T10:16:13.555Z,72.89
2016-03-08T10:17:13.533Z,72.61
2016-03-08T10:18:13.525Z,72.04
2016-03-08T10:19:13.503Z,72.14
2016-03-08T10:20:13.542Z,72.14
2016-03-08T10:21:13.492Z,72.33
2016-03-08T10:22:13.492Z,71.85
2016-03-08T10:23:13.475Z,71.38
2016-03-08T10:24:13.489Z,71.28
2016-03-08T10:25:13.504Z,71.19
2016-03-08T10:26:13.474Z,70.43
2016-03-08T10:27:13.459Z,70.65
2016-03-08T10:28:13.446Z,70.65
2016-03-08T10:29:13.463Z,70.18
2016-03-08T10:30:13.464Z,70.09
2016-03-08T10:31:13.466Z,70.47
2016-03-08T10:32:13.453Z,70.65
2016-03-08T10:33:13.439Z,69.8
2016-03-08T10:34:13.441Z,69.61
2016-03-08T10:35:13.460Z,69.8
2016-03-08T10:36:13.462Z,69.33
2016-03-08T10:37:13.449Z,69.52
2016-03-08T10:38:13.435Z,68.76
2016-03-08T10:39:13.437Z,68.85
2016-03-08T10:40:13.486Z,69.33
2016-03-08T10:41:13.427Z,69.04
2016-03-08T10:42:13.430Z,69.04
2016-03-08T10:43:13.416Z,69.33
2016-03-08T10:44:13.419Z,68.95
2016-03-08T10:45:13.422Z,69.42
2016-03-08T10:46:13.284Z,69.8
2016-03-08T10:47:13.428Z,70.56
2016-03-08T10:48:13.430Z,70.09
2016-03-08T10:49:13.417Z,70.09
2016-03-08T10:50:13.452Z,70.84
2016-03-08T10:51:13.407Z,70.47
2016-03-08T10:52:13.409Z,70.65
2016-03-08T10:53:13.413Z,70.65
2016-03-08T10:54:13.415Z,70.37
2016-03-08T10:55:13.527Z,70.37
2016-03-08T10:56:13.405Z,70.47
2016-03-08T10:57:13.407Z,71.28
2016-03-08T10:58:13.409Z,71.28
2016-03-08T10:59:13.413Z,71.76
2016-03-08T11:00:13.462Z,72.14
2016-03-08T11:01:13.402Z,72.04
2016-03-08T11:02:13.406Z,72.23
2016-03-08T11:03:13.392Z,72.42
2016-03-08T11:04:13.411Z,72.89
2016-03-08T11:05:13.429Z,72.42
2016-03-08T11:06:13.400Z,72.08
2016-03-08T11:07:13.387Z,71.41
2016-03-08T11:08:13.390Z,71.22
2016-03-08T11:09:13.392Z,71.51
2016-03-08T11:10:13.442Z,72.42
2016-03-08T11:11:13.383Z,72.71
2016-03-08T11:12:13.416Z,72.71
2016-03-08T11:13:13.389Z,71.8
2016-03-08T11:14:13.406Z,71.89
2016-03-08T11:15:13.408Z,71.51
2016-03-08T11:16:13.366Z,71.41
2016-03-08T11:17:13.368Z,71.51
2016-03-08T11:18:13.370Z,70.94
2016-03-08T11:19:13.373Z,70.75
2016-03-08T11:20:13.282Z,70.18
2016-03-08T11:21:13.363Z,69.99
2016-03-08T11:22:13.365Z,70.09
2016-03-08T11:23:13.384Z,69.8
2016-03-08T11:24:13.370Z,69.99
2016-03-08T11:25:13.357Z,69.8
2016-03-08T11:26:13.376Z,68.85
2016-03-08T11:27:13.362Z,69.23
2016-03-08T11:28:13.351Z,68.76
2016-03-08T11:29:13.368Z,68.76
2016-03-08T11:30:13.403Z,68.76
2016-03-08T11:31:13.359Z,69.13
2016-03-08T11:32:13.345Z,68.85
2016-03-08T11:33:13.348Z,69.04
2016-03-08T11:34:13.367Z,69.04
2016-03-08T11:35:13.369Z,68.48
2016-03-08T11:36:13.340Z,68.38
2016-03-08T11:37:13.358Z,68.29
2016-03-08T11:38:13.346Z,68.29
2016-03-08T11:39:13.348Z,67.9
2016-03-08T11:40:13.413Z,68.1
2016-03-08T11:41:13.448Z,67.52
2016-03-08T11:42:13.341Z,67.24
2016-03-08T11:43:13.390Z,67.56
2016-03-08T11:44:13.331Z,66.42
2016-03-08T11:45:13.412Z,64.71
2016-03-08T11:46:13.336Z,63.86
2016-03-08T11:47:13.339Z,64.43
2016-03-08T11:48:13.342Z,63.95
2016-03-08T11:49:13.344Z,64.62
2016-03-08T11:50:13.331Z,64.71
2016-03-08T11:51:13.318Z,63.86
2016-03-08T11:52:13.337Z,63.39
2016-03-08T11:53:13.323Z,63.76
2016-03-08T11:54:13.326Z,64.24
2016-03-08T11:55:13.329Z,63.95
2016-03-08T11:56:13.332Z,64.14
2016-03-08T11:57:13.334Z,63.76
2016-03-08T11:58:13.321Z,62.62
2016-03-08T11:59:13.324Z,63.29
2016-03-08T12:00:13.358Z,63.2
2016-03-08T12:01:13.330Z,62.72
2016-03-08T12:02:13.317Z,62.85
2016-03-08T12:03:13.319Z,62.91
2016-03-08T12:04:13.323Z,62.15
2016-03-08T12:05:13.403Z,62.24
2016-03-08T12:06:13.344Z,62.62
2016-03-08T12:07:13.332Z,63.01
2016-03-08T12:08:13.335Z,63.29
2016-03-08T12:09:13.322Z,62.82
2016-03-08T12:10:13.340Z,62.91
2016-03-08T12:11:13.327Z,62.72
2016-03-08T12:12:13.330Z,62.15
2016-03-08T12:13:13.316Z,62.43
2016-03-08T12:14:13.319Z,62.62
2016-03-08T12:15:13.322Z,62.82
2016-03-08T12:16:13.325Z,63.67
2016-03-08T12:17:13.327Z,63.29
2016-03-08T12:18:13.315Z,63.2
2016-03-08T12:19:13.318Z,62.82
2016-03-08T12:20:13.367Z,62.82
2016-03-08T12:21:13.337Z,62.43
2016-03-08T12:22:13.326Z,62.53
2016-03-08T12:23:13.328Z,62.34
2016-03-08T12:24:13.331Z,61.99
2016-03-08T12:25:13.334Z,62.05
2016-03-08T12:26:13.336Z,62.27
2016-03-08T12:27:13.308Z,62.34
2016-03-08T12:28:13.325Z,62.72
2016-03-08T12:29:13.314Z,62.37
2016-03-08T12:30:13.362Z,62.27
2016-03-08T12:31:13.319Z,62.05
2016-03-08T12:32:13.322Z,62.05
2016-03-08T12:33:13.324Z,62.62
2016-03-08T12:34:13.311Z,62.82
2016-03-08T12:35:13.344Z,62.24
2016-03-08T12:36:13.332Z,62.34
2016-03-08T12:37:13.319Z,61.77
2016-03-08T12:38:13.321Z,62.43
2016-03-08T12:39:13.309Z,62.15
2016-03-08T12:40:13.343Z,62.05
2016-03-08T12:41:13.313Z,62.43
2016-03-08T12:42:13.301Z,62.05
2016-03-08T12:43:13.304Z,61.96
2016-03-08T12:44:13.307Z,61.11
2016-03-08T12:45:13.309Z,61.3
2016-03-08T12:46:13.313Z,61.11
2016-03-08T12:47:13.299Z,61.23
2016-03-08T12:48:13.301Z,61.42
2016-03-08T12:49:13.305Z,60.47
2016-03-08T12:50:13.338Z,61.14
2016-03-08T12:51:13.293Z,61.9
2016-03-08T12:52:13.296Z,61.9
2016-03-08T12:53:13.315Z,61.9
2016-03-08T12:54:13.302Z,62.53
2016-03-08T12:55:13.383Z,63.67